Taradale, New Zealand
Current Conditions -  °F | °C
As of 8:00 AM on Thursday 27 Nov 2014 (Local Time) from NZWN Reporting Station
Broken Clouds Broken Clouds  
Wind Chill: 61°   Ceiling: 2400
Heat Index: 61°   Visibility: 6mi
Dew Point: 52°   Wind: 22mph
Humidity: 72%   Direction: 350°N
Pressure: 29.71"   Gusts: 33mph
Location:  39.53°S, 176.85°E
Report Text: NZWN 262000Z AUTO 35019G29KT 9999 BKN024/// 16/11 Q1006 NOSIG
Loading
Personal Weather Stations






























Interactive Weather Map New forecast layout! Learn more

10-Day Weather Forecast

Advertisements
Track Severe Weather on mobile